createdAt,value
2022-08-16T00:00:22.380Z,5.80
2022-08-16T00:01:17.035Z,4.70
2022-08-16T00:02:17.172Z,5.30
2022-08-16T00:03:17.320Z,5.00
2022-08-16T00:04:17.566Z,5.20
2022-08-16T00:05:17.655Z,5.30
2022-08-16T00:06:17.824Z,5.00
2022-08-16T00:07:18.075Z,4.80
2022-08-16T00:08:35.770Z,5.10
2022-08-16T00:09:19.314Z,5.20
2022-08-16T00:10:20.792Z,5.20
2022-08-16T00:11:18.715Z,4.90
2022-08-16T00:12:18.865Z,6.20
2022-08-16T00:13:19.091Z,5.50
2022-08-16T00:14:19.267Z,5.00
2022-08-16T00:15:19.394Z,6.30
2022-08-16T00:17:05.374Z,5.60
2022-08-16T00:17:20.814Z,5.70
2022-08-16T00:18:22.092Z,5.80
2022-08-16T00:19:22.543Z,5.60
2022-08-16T00:20:20.952Z,5.50
2022-08-16T00:21:20.427Z,6.80
2022-08-16T00:22:20.789Z,5.70
2022-08-16T00:23:24.576Z,5.60
2022-08-16T00:24:31.275Z,5.60
2022-08-16T00:26:33.209Z,5.70
2022-08-16T00:26:36.101Z,5.90
2022-08-16T00:27:22.515Z,6.10
2022-08-16T00:28:21.685Z,6.20
2022-08-16T00:29:22.940Z,6.40
2022-08-16T00:30:28.925Z,6.10
2022-08-16T00:31:24.170Z,5.70
2022-08-16T00:32:22.406Z,5.80
2022-08-16T00:33:22.643Z,5.90
2022-08-16T00:34:22.763Z,6.40
2022-08-16T00:35:23.915Z,5.70
2022-08-16T00:36:23.187Z,6.00
2022-08-16T00:37:24.364Z,6.00
2022-08-16T00:38:40.876Z,5.70
2022-08-16T00:39:24.788Z,6.20
2022-08-16T00:40:34.235Z,6.20
2022-08-16T00:41:25.012Z,6.30
2022-08-16T00:42:30.381Z,6.20
2022-08-16T00:43:25.383Z,6.00
2022-08-16T00:44:32.845Z,6.30
2022-08-16T00:45:25.769Z,6.40
2022-08-16T00:46:34.156Z,5.80
2022-08-16T00:47:26.048Z,5.90
2022-08-16T00:48:30.609Z,6.40
2022-08-16T00:49:26.433Z,6.40
2022-08-16T00:50:35.886Z,6.50
2022-08-16T00:51:29.480Z,6.20
2022-08-16T00:52:30.080Z,6.20
2022-08-16T00:53:26.069Z,5.90
2022-08-16T00:54:26.247Z,6.00
2022-08-16T00:55:26.418Z,6.40
2022-08-16T00:56:56.699Z,6.00
2022-08-16T00:57:58.265Z,6.50
2022-08-16T00:58:34.768Z,5.90
2022-08-16T00:59:28.151Z,5.60
2022-08-16T01:00:27.473Z,6.20
2022-08-16T01:01:27.463Z,6.40
2022-08-16T01:02:31.169Z,6.20
2022-08-16T01:03:30.268Z,6.00
2022-08-16T01:04:30.046Z,6.80
2022-08-16T01:05:28.147Z,6.40
2022-08-16T01:06:32.589Z,6.40
2022-08-16T01:07:29.505Z,6.90
2022-08-16T01:08:35.876Z,6.90
2022-08-16T01:09:33.777Z,6.90
2022-08-16T01:10:31.646Z,6.70
2022-08-16T01:11:29.374Z,6.00
2022-08-16T01:12:29.463Z,5.90
2022-08-16T01:13:29.578Z,6.30
2022-08-16T01:14:30.232Z,6.60
2022-08-16T01:15:30.166Z,7.30
2022-08-16T01:16:30.119Z,7.60
2022-08-16T01:17:30.271Z,6.60
2022-08-16T01:18:40.761Z,6.10
2022-08-16T01:19:31.656Z,6.60
2022-08-16T01:20:30.809Z,6.10
2022-08-16T01:21:33.868Z,6.90
2022-08-16T01:22:50.256Z,6.40
2022-08-16T01:23:58.370Z,6.30
2022-08-16T01:24:52.437Z,6.10
2022-08-16T01:25:34.370Z,7.00
2022-08-16T01:26:34.757Z,6.90
2022-08-16T01:27:34.443Z,6.70
2022-08-16T01:28:34.684Z,7.30
2022-08-16T01:29:35.707Z,6.30
2022-08-16T01:30:33.559Z,7.60
2022-08-16T01:31:32.741Z,7.50
2022-08-16T01:32:34.468Z,6.30
2022-08-16T01:33:33.120Z,6.80
2022-08-16T01:34:33.363Z,6.80
2022-08-16T01:35:35.362Z,6.40
2022-08-16T01:36:33.604Z,6.70
2022-08-16T01:37:35.582Z,7.20
2022-08-16T01:38:33.953Z,6.50
2022-08-16T01:39:35.397Z,6.70
2022-08-16T01:40:34.311Z,6.20
2022-08-16T01:41:34.516Z,6.00
2022-08-16T01:42:35.652Z,7.00
2022-08-16T01:43:34.832Z,7.20
2022-08-16T01:44:37.810Z,7.30
2022-08-16T01:45:40.425Z,7.00
2022-08-16T01:46:39.251Z,7.10
2022-08-16T01:47:35.615Z,6.20
2022-08-16T01:48:35.733Z,6.70
2022-08-16T01:49:35.996Z,7.10
2022-08-16T01:50:41.821Z,6.70
2022-08-16T01:51:39.184Z,6.90
2022-08-16T01:52:36.383Z,7.00
2022-08-16T01:53:36.677Z,7.10
2022-08-16T01:54:37.549Z,7.30
2022-08-16T01:55:36.913Z,7.40
2022-08-16T01:56:37.138Z,7.10
2022-08-16T01:57:37.307Z,6.70
2022-08-16T01:58:37.444Z,6.10
2022-08-16T01:59:37.613Z,6.90
2022-08-16T02:00:37.819Z,6.90
2022-08-16T02:01:38.124Z,7.00
2022-08-16T02:02:42.533Z,6.90
2022-08-16T02:03:40.099Z,6.90
2022-08-16T02:04:48.651Z,7.20
2022-08-16T02:05:39.615Z,6.90
2022-08-16T02:06:39.866Z,6.80
2022-08-16T02:07:39.943Z,6.50
2022-08-16T02:08:39.134Z,6.80
2022-08-16T02:09:39.397Z,7.00
2022-08-16T02:10:39.475Z,7.10
2022-08-16T02:11:48.643Z,6.90
2022-08-16T02:12:51.906Z,6.90
2022-08-16T02:13:41.895Z,6.90
2022-08-16T02:14:40.133Z,6.30
2022-08-16T02:15:43.950Z,6.90
2022-08-16T02:16:40.539Z,6.20
2022-08-16T02:17:40.675Z,6.50
2022-08-16T02:18:40.855Z,6.40
2022-08-16T02:20:00.302Z,6.70
2022-08-16T02:20:42.586Z,6.70
2022-08-16T02:22:08.976Z,7.40
2022-08-16T02:22:42.650Z,7.10
2022-08-16T02:23:41.735Z,6.30
2022-08-16T02:24:42.329Z,7.30
2022-08-16T02:25:52.136Z,5.90
2022-08-16T02:26:43.250Z,7.30
2022-08-16T02:27:42.433Z,7.40
2022-08-16T02:28:45.292Z,6.60
2022-08-16T02:29:42.814Z,7.10
2022-08-16T02:30:45.078Z,7.10
2022-08-16T02:32:03.471Z,6.90
2022-08-16T02:32:51.149Z,7.00
2022-08-16T02:33:49.113Z,7.20
2022-08-16T02:34:44.720Z,6.40
2022-08-16T02:35:54.063Z,7.40
2022-08-16T02:36:50.711Z,6.60
2022-08-16T02:37:52.369Z,6.70
2022-08-16T02:38:45.490Z,7.20
2022-08-16T02:39:44.641Z,6.70
2022-08-16T02:40:44.746Z,6.80
2022-08-16T02:41:44.979Z,6.20
2022-08-16T02:42:49.731Z,6.50
2022-08-16T02:43:45.238Z,6.80
2022-08-16T02:44:45.489Z,7.00
2022-08-16T02:45:45.589Z,7.60
2022-08-16T02:46:49.882Z,6.60
2022-08-16T02:48:01.560Z,6.90
2022-08-16T02:48:47.468Z,7.40
2022-08-16T02:49:59.202Z,6.70
2022-08-16T02:51:06.436Z,6.50
2022-08-16T02:51:47.676Z,7.10
2022-08-16T02:52:46.999Z,8.00
2022-08-16T02:53:47.037Z,7.60
2022-08-16T02:54:47.253Z,6.70
2022-08-16T02:55:50.461Z,8.00
2022-08-16T02:56:47.807Z,6.90
2022-08-16T02:57:53.960Z,6.80
2022-08-16T02:58:48.862Z,7.00
2022-08-16T02:59:48.066Z,6.60
2022-08-16T03:00:50.026Z,7.00
2022-08-16T03:01:49.594Z,7.00
2022-08-16T03:02:56.192Z,6.20
2022-08-16T03:04:39.955Z,7.30
2022-08-16T03:04:52.665Z,6.50
2022-08-16T03:05:49.150Z,7.20
2022-08-16T03:06:49.228Z,7.30
2022-08-16T03:07:50.804Z,6.50
2022-08-16T03:08:52.349Z,6.70
2022-08-16T03:09:49.753Z,7.30
2022-08-16T03:10:49.913Z,6.30
2022-08-16T03:11:50.079Z,7.60
2022-08-16T03:12:55.882Z,7.10
2022-08-16T03:13:51.599Z,6.70
2022-08-16T03:14:50.600Z,6.90
2022-08-16T03:15:50.792Z,6.50
2022-08-16T03:16:59.227Z,7.40
2022-08-16T03:17:53.332Z,7.00
2022-08-16T03:18:51.315Z,7.40
2022-08-16T03:19:59.791Z,6.70
2022-08-16T03:20:55.894Z,7.20
2022-08-16T03:21:51.953Z,7.10
2022-08-16T03:22:51.940Z,7.40
2022-08-16T03:23:52.101Z,7.90
2022-08-16T03:24:52.363Z,6.60
2022-08-16T03:25:52.447Z,7.20
2022-08-16T03:26:52.601Z,6.70
2022-08-16T03:27:52.886Z,7.00
2022-08-16T03:28:52.960Z,7.10
2022-08-16T03:29:54.662Z,7.30
2022-08-16T03:30:53.342Z,7.30
2022-08-16T03:31:53.461Z,7.60
2022-08-16T03:32:53.751Z,7.50
2022-08-16T03:33:53.802Z,7.00
2022-08-16T03:34:53.997Z,7.20
2022-08-16T03:35:57.159Z,7.50
2022-08-16T03:36:54.291Z,7.40
2022-08-16T03:38:03.052Z,7.30
2022-08-16T03:38:55.651Z,6.80
2022-08-16T03:39:56.546Z,6.70
2022-08-16T03:40:55.981Z,7.20
2022-08-16T03:41:59.587Z,7.10
2022-08-16T03:43:19.135Z,7.00
2022-08-16T03:43:56.501Z,6.80
2022-08-16T03:45:03.529Z,7.60
2022-08-16T03:45:56.924Z,7.40
2022-08-16T03:46:56.024Z,7.10
2022-08-16T03:47:59.713Z,7.90
2022-08-16T03:48:56.453Z,6.50
2022-08-16T03:49:56.560Z,6.80
2022-08-16T03:50:59.918Z,6.80
2022-08-16T03:51:56.946Z,7.10
2022-08-16T03:53:04.158Z,7.20
2022-08-16T03:54:01.313Z,7.20
2022-08-16T03:54:59.277Z,6.90
2022-08-16T03:55:57.613Z,7.60
2022-08-16T03:56:58.787Z,7.80
2022-08-16T03:57:57.985Z,9.10
2022-08-16T03:58:58.178Z,8.00
2022-08-16T03:59:58.386Z,8.40
2022-08-16T04:00:59.389Z,8.60
2022-08-16T04:01:58.703Z,8.20
2022-08-16T04:02:58.946Z,8.50
2022-08-16T04:03:59.055Z,8.10
2022-08-16T04:04:59.243Z,7.80
2022-08-16T04:05:59.476Z,7.10
2022-08-16T04:06:59.593Z,8.50
2022-08-16T04:07:59.753Z,8.20
2022-08-16T04:09:00.026Z,7.40
2022-08-16T04:10:00.127Z,7.80
2022-08-16T04:11:01.302Z,8.00
2022-08-16T04:12:00.571Z,8.10
2022-08-16T04:13:04.628Z,7.80
2022-08-16T04:14:30.842Z,7.80
2022-08-16T04:15:02.209Z,7.70
2022-08-16T04:16:01.205Z,7.70
2022-08-16T04:17:01.707Z,7.70
2022-08-16T04:18:01.548Z,7.70
2022-08-16T04:19:04.084Z,9.10
2022-08-16T04:20:01.875Z,7.60
2022-08-16T04:21:02.065Z,8.20
2022-08-16T04:22:02.336Z,7.90
2022-08-16T04:23:03.428Z,8.40
2022-08-16T04:24:02.843Z,7.80
2022-08-16T04:25:02.867Z,8.30
2022-08-16T04:26:02.956Z,7.70
2022-08-16T04:27:03.157Z,7.90
2022-08-16T04:28:54.593Z,6.90
2022-08-16T04:29:16.334Z,8.20
2022-08-16T04:30:04.676Z,7.20
2022-08-16T04:31:07.363Z,7.90
2022-08-16T04:32:05.080Z,7.50
2022-08-16T04:33:04.480Z,8.20
2022-08-16T04:34:04.418Z,9.10
2022-08-16T04:35:08.391Z,8.10
2022-08-16T04:36:05.740Z,7.90
2022-08-16T04:37:05.217Z,7.80
2022-08-16T04:38:09.509Z,7.50
2022-08-16T04:39:06.248Z,8.00
2022-08-16T04:40:05.727Z,8.40
2022-08-16T04:41:05.670Z,7.90
2022-08-16T04:42:11.206Z,7.90
2022-08-16T04:43:06.924Z,8.40
2022-08-16T04:44:32.756Z,8.80
2022-08-16T04:45:07.261Z,8.00
2022-08-16T04:46:06.429Z,7.60
2022-08-16T04:47:24.005Z,7.90
2022-08-16T04:48:07.774Z,8.50
2022-08-16T04:49:06.925Z,7.60
2022-08-16T04:50:07.861Z,8.30
2022-08-16T04:51:07.811Z,7.30
2022-08-16T04:52:07.476Z,8.00
2022-08-16T04:53:08.648Z,8.40
2022-08-16T04:54:07.921Z,8.20
2022-08-16T04:55:08.000Z,7.60
2022-08-16T04:56:11.383Z,8.40
2022-08-16T04:57:08.447Z,7.60
2022-08-16T04:58:44.159Z,7.30
2022-08-16T04:59:09.698Z,7.70
2022-08-16T05:00:30.446Z,7.30
2022-08-16T05:01:10.029Z,7.50
2022-08-16T05:02:41.008Z,7.70
2022-08-16T05:03:10.572Z,7.30
2022-08-16T05:04:09.575Z,7.30
2022-08-16T05:05:17.218Z,7.90
2022-08-16T05:06:10.997Z,7.30
2022-08-16T05:07:14.893Z,8.30
2022-08-16T05:08:29.216Z,7.10
2022-08-16T05:09:11.495Z,7.70
2022-08-16T05:10:19.869Z,7.50
2022-08-16T05:11:11.787Z,7.40
2022-08-16T05:12:11.285Z,7.60
2022-08-16T05:13:15.511Z,7.50
2022-08-16T05:14:11.331Z,6.60
2022-08-16T05:15:12.509Z,7.60
2022-08-16T05:16:16.600Z,6.80
2022-08-16T05:17:12.841Z,7.60
2022-08-16T05:18:15.967Z,7.20
2022-08-16T05:19:13.265Z,7.00
2022-08-16T05:20:35.254Z,7.10
2022-08-16T05:21:13.501Z,7.20
2022-08-16T05:22:18.306Z,7.50
2022-08-16T05:23:15.039Z,6.80
2022-08-16T05:24:13.021Z,6.90
2022-08-16T05:25:13.274Z,6.80
2022-08-16T05:26:20.196Z,7.30
2022-08-16T05:27:14.562Z,7.10
2022-08-16T05:28:13.799Z,7.40
2022-08-16T05:29:14.657Z,7.00
2022-08-16T05:30:35.803Z,7.60
2022-08-16T05:31:15.253Z,7.60
2022-08-16T05:32:32.883Z,6.60
2022-08-16T05:33:16.363Z,6.80
2022-08-16T05:34:19.741Z,6.40
2022-08-16T05:35:16.048Z,6.90
2022-08-16T05:36:15.131Z,6.40
2022-08-16T05:37:16.302Z,6.00
2022-08-16T05:38:33.080Z,5.90
2022-08-16T05:39:16.651Z,6.30
2022-08-16T05:40:15.860Z,6.30
2022-08-16T05:41:16.914Z,6.30
2022-08-16T05:42:16.176Z,5.90
2022-08-16T05:43:16.314Z,6.10
2022-08-16T05:44:24.249Z,5.80
2022-08-16T05:45:22.003Z,6.30
2022-08-16T05:46:28.909Z,5.90
2022-08-16T05:47:18.077Z,6.10
2022-08-16T05:48:17.235Z,5.30
2022-08-16T05:49:22.626Z,5.90
2022-08-16T05:50:18.963Z,6.10
2022-08-16T05:51:38.923Z,5.50
2022-08-16T05:52:20.697Z,5.10
2022-08-16T05:53:18.046Z,5.40
2022-08-16T05:54:24.679Z,5.50
2022-08-16T05:55:19.386Z,5.70
2022-08-16T05:56:19.440Z,5.50
2022-08-16T05:57:18.869Z,5.00
2022-08-16T05:58:31.987Z,5.30
2022-08-16T05:59:22.112Z,5.90
2022-08-16T06:00:22.354Z,5.80
2022-08-16T06:01:19.503Z,5.60
2022-08-16T06:02:19.647Z,5.10
2022-08-16T06:03:19.900Z,5.20
2022-08-16T06:04:34.840Z,5.80
2022-08-16T06:05:21.159Z,5.00
2022-08-16T06:06:28.176Z,5.40
2022-08-16T06:07:25.061Z,5.40
2022-08-16T06:08:31.825Z,5.30
2022-08-16T06:09:21.909Z,5.10
2022-08-16T06:10:32.062Z,5.90
2022-08-16T06:11:22.262Z,5.50
2022-08-16T06:12:26.961Z,5.60
2022-08-16T06:13:22.629Z,5.20
2022-08-16T06:14:21.800Z,5.20
2022-08-16T06:15:21.955Z,5.80
2022-08-16T06:16:22.205Z,5.40
2022-08-16T06:17:22.310Z,6.30
2022-08-16T06:18:22.481Z,5.70
2022-08-16T06:19:23.782Z,6.80
2022-08-16T06:20:23.766Z,22.10
2022-08-16T06:21:23.877Z,13.30
2022-08-16T06:22:39.034Z,5.60
2022-08-16T06:23:24.653Z,5.50
2022-08-16T06:24:53.327Z,5.80
2022-08-16T06:25:35.398Z,5.70
2022-08-16T06:26:24.881Z,5.20
2022-08-16T06:27:25.024Z,5.10
2022-08-16T06:28:36.627Z,5.00
2022-08-16T06:29:25.395Z,5.30
2022-08-16T06:30:24.513Z,5.10
2022-08-16T06:31:25.176Z,5.00
2022-08-16T06:32:27.771Z,4.10
2022-08-16T06:33:25.025Z,3.80
2022-08-16T06:34:55.062Z,4.40
2022-08-16T06:35:26.438Z,4.60
2022-08-16T06:36:26.707Z,4.50
2022-08-16T06:37:25.685Z,3.70
2022-08-16T06:38:33.739Z,4.00
2022-08-16T06:39:27.053Z,4.30
2022-08-16T06:40:33.702Z,4.00
2022-08-16T06:41:27.783Z,4.30
2022-08-16T06:42:26.569Z,4.90
2022-08-16T06:43:27.578Z,4.70
2022-08-16T06:44:27.109Z,4.30
2022-08-16T06:45:29.112Z,4.10
2022-08-16T06:46:31.658Z,4.10
2022-08-16T06:47:52.462Z,4.20
2022-08-16T06:48:32.852Z,4.50
2022-08-16T06:49:28.776Z,4.40
2022-08-16T06:50:29.681Z,3.70
2022-08-16T06:51:45.703Z,4.20
2022-08-16T06:53:08.608Z,4.40
2022-08-16T06:53:29.813Z,4.20
2022-08-16T06:54:28.745Z,4.30
2022-08-16T06:55:33.749Z,4.60
2022-08-16T06:56:30.031Z,4.50
2022-08-16T06:57:29.287Z,4.90
2022-08-16T06:58:31.884Z,4.40
2022-08-16T06:59:29.529Z,6.50
2022-08-16T07:00:30.777Z,4.70
2022-08-16T07:01:46.102Z,4.30
2022-08-16T07:02:33.369Z,4.00
2022-08-16T07:03:32.397Z,4.40
2022-08-16T07:04:32.933Z,3.90
2022-08-16T07:05:42.016Z,9.70
2022-08-16T07:06:31.773Z,5.80
2022-08-16T07:07:34.580Z,6.60
2022-08-16T07:08:32.128Z,10.90
2022-08-16T07:09:31.271Z,11.00
2022-08-16T07:10:31.492Z,11.00
2022-08-16T07:11:47.839Z,9.40
2022-08-16T07:12:47.627Z,10.20
2022-08-16T07:14:22.808Z,5.80
2022-08-16T07:14:33.156Z,4.40
2022-08-16T07:15:32.312Z,4.90
2022-08-16T07:16:32.526Z,3.90
2022-08-16T07:17:32.682Z,4.50
2022-08-16T07:18:32.843Z,3.90
2022-08-16T07:19:33.663Z,4.50
2022-08-16T07:20:36.123Z,5.50
2022-08-16T07:21:46.613Z,5.60
2022-08-16T07:22:37.134Z,6.90
2022-08-16T07:23:37.219Z,6.60
2022-08-16T07:24:34.863Z,5.60
2022-08-16T07:25:35.043Z,3.90
2022-08-16T07:26:35.260Z,4.20
2022-08-16T07:27:37.228Z,4.10
2022-08-16T07:28:34.545Z,6.90
2022-08-16T07:29:34.784Z,7.20
2022-08-16T07:30:39.907Z,4.80
2022-08-16T07:31:37.835Z,6.20
2022-08-16T07:32:35.365Z,5.50
2022-08-16T07:33:51.345Z,5.30
2022-08-16T07:34:48.189Z,4.60
2022-08-16T07:35:36.787Z,3.90
2022-08-16T07:36:36.955Z,5.00
2022-08-16T07:37:36.229Z,4.00
2022-08-16T07:38:36.298Z,3.80
2022-08-16T07:39:43.221Z,4.50
2022-08-16T07:40:59.398Z,4.00
2022-08-16T07:41:37.813Z,3.60
2022-08-16T07:42:37.007Z,4.10
2022-08-16T07:43:40.594Z,3.30
2022-08-16T07:44:49.023Z,4.30
2022-08-16T07:45:38.549Z,3.90
2022-08-16T07:46:40.163Z,4.90
2022-08-16T07:47:38.985Z,11.50
2022-08-16T07:48:38.090Z,8.50
2022-08-16T07:49:38.249Z,4.50
2022-08-16T07:50:55.673Z,23.10
2022-08-16T07:51:39.610Z,6.60
2022-08-16T07:52:39.165Z,3.60
2022-08-16T07:53:43.872Z,3.90
2022-08-16T07:54:40.122Z,3.80
2022-08-16T07:55:47.881Z,4.50
2022-08-16T07:56:40.525Z,3.60
2022-08-16T07:57:55.808Z,3.80
2022-08-16T07:58:40.828Z,4.40
2022-08-16T07:59:45.710Z,3.70
2022-08-16T08:00:41.199Z,3.50
2022-08-16T08:01:41.352Z,3.70
2022-08-16T08:02:40.679Z,3.50
2022-08-16T08:03:43.660Z,3.70
2022-08-16T08:04:41.883Z,3.70
2022-08-16T08:05:41.138Z,3.30
2022-08-16T08:06:41.292Z,3.80
2022-08-16T08:07:45.270Z,2.90
2022-08-16T08:08:50.643Z,3.20
2022-08-16T08:09:43.201Z,3.30
2022-08-16T08:10:41.937Z,3.80
2022-08-16T08:12:00.659Z,4.10
2022-08-16T08:12:43.850Z,3.80
2022-08-16T08:13:43.071Z,3.50
2022-08-16T08:14:42.617Z,3.20
2022-08-16T08:15:52.889Z,3.50
2022-08-16T08:16:45.214Z,3.50
2022-08-16T08:17:44.075Z,8.90
2022-08-16T08:18:43.438Z,6.50
2022-08-16T08:19:44.501Z,4.50
2022-08-16T08:20:44.658Z,5.20
2022-08-16T08:21:59.978Z,3.50
2022-08-16T08:22:45.006Z,4.10
2022-08-16T08:23:44.230Z,3.90
2022-08-16T08:24:44.389Z,4.30
2022-08-16T08:25:55.173Z,3.50
2022-08-16T08:26:49.792Z,3.30
2022-08-16T08:27:44.887Z,2.80
2022-08-16T08:28:45.029Z,2.90
2022-08-16T08:29:45.217Z,3.10
2022-08-16T08:30:52.071Z,2.80
2022-08-16T08:31:46.511Z,2.90
2022-08-16T08:32:59.461Z,3.00
2022-08-16T08:33:51.571Z,2.80
2022-08-16T08:34:46.529Z,2.80
2022-08-16T08:35:46.205Z,3.10
2022-08-16T08:36:46.420Z,2.80
2022-08-16T08:37:55.709Z,2.80
2022-08-16T08:38:47.723Z,3.00
2022-08-16T08:39:55.248Z,2.50
2022-08-16T08:40:48.044Z,2.10
2022-08-16T08:41:49.291Z,3.10
2022-08-16T08:42:47.993Z,2.70
2022-08-16T08:43:50.261Z,3.00
2022-08-16T08:44:47.754Z,2.80
2022-08-16T08:45:52.508Z,2.90
2022-08-16T08:47:00.319Z,2.80
2022-08-16T08:47:54.091Z,2.90
2022-08-16T08:48:58.363Z,2.80
2022-08-16T08:49:55.530Z,3.00
2022-08-16T08:50:50.224Z,2.20
2022-08-16T08:51:48.949Z,2.30
2022-08-16T08:52:49.320Z,2.40
2022-08-16T08:53:57.976Z,2.80
2022-08-16T08:54:50.642Z,2.60
2022-08-16T08:55:49.698Z,2.80
2022-08-16T08:56:50.832Z,2.50
2022-08-16T08:57:50.007Z,3.20
2022-08-16T08:58:54.649Z,2.50
2022-08-16T08:59:51.376Z,3.00
2022-08-16T09:00:51.514Z,2.50
2022-08-16T09:01:56.299Z,2.90
2022-08-16T09:02:52.634Z,2.50
2022-08-16T09:03:51.092Z,3.00
2022-08-16T09:04:51.229Z,3.30
2022-08-16T09:05:51.897Z,2.50
2022-08-16T09:06:51.600Z,2.90
2022-08-16T09:08:00.478Z,2.50
2022-08-16T09:08:52.940Z,2.20
2022-08-16T09:10:06.279Z,3.10
2022-08-16T09:10:58.819Z,2.80
2022-08-16T09:12:06.069Z,2.80
2022-08-16T09:12:53.653Z,2.20
2022-08-16T09:13:52.891Z,2.10
2022-08-16T09:14:52.991Z,3.10
2022-08-16T09:15:53.181Z,2.20
2022-08-16T09:17:01.148Z,2.50
2022-08-16T09:17:54.817Z,2.60
2022-08-16T09:18:54.926Z,2.00
2022-08-16T09:19:57.090Z,2.10
2022-08-16T09:20:58.340Z,2.20
2022-08-16T09:21:56.242Z,1.50
2022-08-16T09:22:54.705Z,1.90
2022-08-16T09:23:54.589Z,1.70
2022-08-16T09:24:58.177Z,1.90
2022-08-16T09:25:55.966Z,3.90
2022-08-16T09:26:55.091Z,3.90
2022-08-16T09:27:56.704Z,5.60
2022-08-16T09:29:16.279Z,8.00
2022-08-16T09:30:00.054Z,2.10
2022-08-16T09:30:55.755Z,1.40
2022-08-16T09:31:55.955Z,1.70
2022-08-16T09:32:56.211Z,1.40
2022-08-16T09:33:56.306Z,1.50
2022-08-16T09:34:58.117Z,1.20
2022-08-16T09:35:56.725Z,1.60
2022-08-16T09:36:56.828Z,1.00
2022-08-16T09:38:00.980Z,1.00
2022-08-16T09:38:59.921Z,1.80
2022-08-16T09:39:57.416Z,1.20
2022-08-16T09:40:57.581Z,1.70
2022-08-16T09:41:57.796Z,1.50
2022-08-16T09:42:58.977Z,1.60
2022-08-16T09:44:02.205Z,0.90
2022-08-16T09:45:10.748Z,1.40
2022-08-16T09:45:59.467Z,1.30
2022-08-16T09:46:58.636Z,1.20
2022-08-16T09:47:58.958Z,1.40
2022-08-16T09:48:59.061Z,1.40
2022-08-16T09:49:59.169Z,1.20
2022-08-16T09:50:59.329Z,1.20
2022-08-16T09:51:59.569Z,1.00
2022-08-16T09:52:59.717Z,1.10
2022-08-16T09:53:59.849Z,0.90
2022-08-16T09:55:00.150Z,1.10
2022-08-16T09:56:00.258Z,1.00
2022-08-16T09:57:00.370Z,0.90
2022-08-16T09:58:00.581Z,1.10
2022-08-16T09:59:05.229Z,1.10
2022-08-16T10:00:01.908Z,1.30
2022-08-16T10:01:01.141Z,1.20
2022-08-16T10:02:25.966Z,1.10
2022-08-16T10:03:02.478Z,1.20
2022-08-16T10:04:04.554Z,1.40
2022-08-16T10:05:01.945Z,1.00
2022-08-16T10:06:01.931Z,0.90
2022-08-16T10:07:02.592Z,1.00
2022-08-16T10:08:25.433Z,1.00
2022-08-16T10:09:05.982Z,1.00
2022-08-16T10:10:02.633Z,1.20
2022-08-16T10:11:02.906Z,1.50
2022-08-16T10:12:11.323Z,1.10
2022-08-16T10:13:04.253Z,1.40
2022-08-16T10:14:03.711Z,1.20
2022-08-16T10:15:03.729Z,1.40
2022-08-16T10:16:03.815Z,1.10
2022-08-16T10:17:03.917Z,1.40
2022-08-16T10:19:00.428Z,1.00
2022-08-16T10:19:07.060Z,1.00
2022-08-16T10:20:04.395Z,1.10
2022-08-16T10:21:04.620Z,1.00
2022-08-16T10:22:05.607Z,1.40
2022-08-16T10:23:07.089Z,1.00
2022-08-16T10:24:05.173Z,1.20
2022-08-16T10:25:05.257Z,0.90
2022-08-16T10:27:16.547Z,1.50
2022-08-16T10:27:21.663Z,1.20
2022-08-16T10:28:27.557Z,1.30
2022-08-16T10:29:06.947Z,0.90
2022-08-16T10:30:06.894Z,1.00
2022-08-16T10:31:07.321Z,1.00
2022-08-16T10:32:06.480Z,1.10
2022-08-16T10:33:06.658Z,1.30
2022-08-16T10:34:24.066Z,0.90
2022-08-16T10:35:08.009Z,1.10
2022-08-16T10:36:07.587Z,0.90
2022-08-16T10:37:07.390Z,0.90
2022-08-16T10:38:09.654Z,0.90
2022-08-16T10:39:08.804Z,1.00
2022-08-16T10:40:29.287Z,0.70
2022-08-16T10:41:09.071Z,0.80
2022-08-16T10:42:08.205Z,0.90
2022-08-16T10:43:08.491Z,0.40
2022-08-16T10:44:09.767Z,1.30
2022-08-16T10:45:08.721Z,2.60
2022-08-16T10:46:33.840Z,0.90
2022-08-16T10:47:10.104Z,1.10
2022-08-16T10:48:27.112Z,0.80
2022-08-16T10:49:10.414Z,0.70
2022-08-16T10:50:19.742Z,0.80
2022-08-16T10:51:10.785Z,1.10
2022-08-16T10:52:18.183Z,0.90
2022-08-16T10:53:11.185Z,1.50
2022-08-16T10:54:28.607Z,0.70
2022-08-16T10:56:49.472Z,0.80
2022-08-16T10:57:12.134Z,1.00
2022-08-16T10:58:11.865Z,0.50
2022-08-16T11:00:21.026Z,1.20
2022-08-16T11:01:43.542Z,1.20
2022-08-16T11:02:58.321Z,0.90
2022-08-16T11:03:44.651Z,0.70
2022-08-16T11:05:05.394Z,0.70
2022-08-16T11:05:14.162Z,0.70
2022-08-16T11:06:12.569Z,0.70
2022-08-16T11:08:13.767Z,0.90
2022-08-16T11:09:29.157Z,0.70
2022-08-16T11:11:05.234Z,0.80
2022-08-16T11:11:19.423Z,1.30
2022-08-16T11:12:15.022Z,0.80
2022-08-16T11:13:57.320Z,1.20
2022-08-16T11:14:14.798Z,1.20
2022-08-16T11:15:16.834Z,0.80
2022-08-16T11:17:15.320Z,0.90
2022-08-16T11:19:03.588Z,0.90
2022-08-16T11:19:16.005Z,2.10
2022-08-16T11:21:28.461Z,0.60
2022-08-16T11:22:38.897Z,0.60
2022-08-16T11:23:16.399Z,0.70
2022-08-16T11:24:41.794Z,1.10
2022-08-16T11:26:06.476Z,0.70
2022-08-16T11:26:23.844Z,0.80
2022-08-16T11:27:19.501Z,1.50
2022-08-16T11:29:12.297Z,1.20
2022-08-16T11:29:17.432Z,0.70
2022-08-16T11:30:20.014Z,0.80
2022-08-16T11:31:17.861Z,0.70
2022-08-16T11:32:20.101Z,0.80
2022-08-16T11:33:18.267Z,0.70
2022-08-16T11:34:19.734Z,1.10
2022-08-16T11:35:17.872Z,1.50
2022-08-16T11:36:27.793Z,0.50
2022-08-16T11:37:27.429Z,1.30
2022-08-16T11:38:46.916Z,1.10
2022-08-16T11:39:19.164Z,0.60
2022-08-16T11:40:18.375Z,0.50
2022-08-16T11:41:18.565Z,0.80
2022-08-16T11:42:28.129Z,0.70
2022-08-16T11:43:19.865Z,0.70
2022-08-16T11:44:20.431Z,1.00
2022-08-16T11:45:20.236Z,0.60
2022-08-16T11:46:45.410Z,0.60
2022-08-16T11:47:20.694Z,1.30
2022-08-16T11:48:19.763Z,1.80
2022-08-16T11:49:19.946Z,1.00
2022-08-16T11:50:20.207Z,0.70
2022-08-16T11:51:20.299Z,0.60
2022-08-16T11:52:21.631Z,0.70
2022-08-16T11:53:20.746Z,0.70
2022-08-16T11:54:22.879Z,0.60
2022-08-16T11:55:23.507Z,0.80
2022-08-16T11:56:29.872Z,1.00
2022-08-16T11:57:22.448Z,0.80
2022-08-16T11:58:21.542Z,0.40
2022-08-16T11:59:24.428Z,0.60
2022-08-16T12:00:50.740Z,0.80
2022-08-16T12:01:29.676Z,0.90
2022-08-16T12:02:32.618Z,0.80
2022-08-16T12:03:34.956Z,0.70
2022-08-16T12:04:23.672Z,0.70
2022-08-16T12:05:22.738Z,0.60
2022-08-16T12:06:25.158Z,1.20
2022-08-16T12:07:23.651Z,0.90
2022-08-16T12:08:25.976Z,1.00
2022-08-16T12:09:23.411Z,0.70
2022-08-16T12:10:23.589Z,0.70
2022-08-16T12:11:23.740Z,0.80
2022-08-16T12:12:24.015Z,0.60
2022-08-16T12:13:24.101Z,0.50
2022-08-16T12:14:24.292Z,0.40
2022-08-16T12:15:24.483Z,0.70
2022-08-16T12:16:24.651Z,0.90
2022-08-16T12:17:26.332Z,0.70
2022-08-16T12:18:25.032Z,1.10
2022-08-16T12:19:34.027Z,0.90
2022-08-16T12:20:27.640Z,0.40
2022-08-16T12:21:25.564Z,1.20
2022-08-16T12:22:26.774Z,0.60
2022-08-16T12:23:25.925Z,0.80
2022-08-16T12:24:26.103Z,0.80
2022-08-16T12:25:26.284Z,0.50
2022-08-16T12:26:26.477Z,0.50
2022-08-16T12:27:26.703Z,0.70
2022-08-16T12:28:44.777Z,0.50
2022-08-16T12:29:29.217Z,0.50
2022-08-16T12:30:33.536Z,0.70
2022-08-16T12:31:28.346Z,0.50
2022-08-16T12:32:39.592Z,0.40
2022-08-16T12:33:28.719Z,0.80
2022-08-16T12:34:28.927Z,0.30
2022-08-16T12:35:28.296Z,0.60
2022-08-16T12:36:29.732Z,0.40
2022-08-16T12:37:28.452Z,0.60
2022-08-16T12:38:41.752Z,0.50
2022-08-16T12:39:29.738Z,0.40
2022-08-16T12:40:29.896Z,0.50
2022-08-16T12:41:29.122Z,0.60
2022-08-16T12:42:34.289Z,0.60
2022-08-16T12:43:31.234Z,0.60
2022-08-16T12:44:31.399Z,0.50
2022-08-16T12:45:29.750Z,0.90
2022-08-16T12:46:31.184Z,0.40
2022-08-16T12:47:30.207Z,1.20
2022-08-16T12:48:33.702Z,0.50
2022-08-16T12:49:30.461Z,1.20
2022-08-16T12:50:33.299Z,0.40
2022-08-16T12:51:34.633Z,0.60
2022-08-16T12:52:33.620Z,0.40
2022-08-16T12:53:31.680Z,0.40
2022-08-16T12:54:31.390Z,0.50
2022-08-16T12:55:33.494Z,0.40
2022-08-16T12:56:32.724Z,0.60
2022-08-16T12:57:36.693Z,0.50
2022-08-16T12:58:49.227Z,0.50
2022-08-16T12:59:33.254Z,0.90
2022-08-16T13:00:34.001Z,0.40
2022-08-16T13:01:32.563Z,0.60
2022-08-16T13:02:33.292Z,0.60
2022-08-16T13:03:40.102Z,0.50
2022-08-16T13:04:34.084Z,0.70
2022-08-16T13:06:33.925Z,0.80
2022-08-16T13:07:47.870Z,1.10
2022-08-16T13:08:34.757Z,0.50
2022-08-16T13:09:37.760Z,0.60
2022-08-16T13:10:38.125Z,0.80
2022-08-16T13:11:34.306Z,0.40
2022-08-16T13:12:34.577Z,0.40
2022-08-16T13:13:35.704Z,0.30
2022-08-16T13:14:34.873Z,1.00
2022-08-16T13:15:36.253Z,0.90
2022-08-16T13:16:36.288Z,0.40
2022-08-16T13:17:35.345Z,0.40
2022-08-16T13:18:35.896Z,0.80
2022-08-16T13:20:05.582Z,0.40
2022-08-16T13:20:36.838Z,0.50
2022-08-16T13:21:36.026Z,0.40
2022-08-16T13:22:36.275Z,0.80
2022-08-16T13:23:36.379Z,0.40
2022-08-16T13:24:37.569Z,0.40
2022-08-16T13:25:36.814Z,0.50
2022-08-16T13:26:36.929Z,0.90